sensor_id;sensor_type;location;lat;lon;timestamp;P1;durP1;ratioP1;P2;durP2;ratioP2
17686;SDS011;8962;52.538;13.266;2023-05-10T00:01:18;8.00;;;5.60;;
17686;SDS011;8962;52.538;13.266;2023-05-10T00:03:46;9.82;;;6.00;;
17686;SDS011;8962;52.538;13.266;2023-05-10T00:06:13;8.98;;;5.78;;
17686;SDS011;8962;52.538;13.266;2023-05-10T00:08:40;8.30;;;5.82;;
17686;SDS011;8962;52.538;13.266;2023-05-10T00:11:07;9.23;;;5.85;;
17686;SDS011;8962;52.538;13.266;2023-05-10T00:13:34;8.02;;;5.82;;
17686;SDS011;8962;52.538;13.266;2023-05-10T00:16:02;7.55;;;5.78;;
17686;SDS011;8962;52.538;13.266;2023-05-10T00:18:30;9.55;;;5.90;;
17686;SDS011;8962;52.538;13.266;2023-05-10T00:20:57;8.27;;;5.30;;
17686;SDS011;8962;52.538;13.266;2023-05-10T00:23:24;10.02;;;6.00;;
17686;SDS011;8962;52.538;13.266;2023-05-10T00:25:51;7.95;;;5.70;;
17686;SDS011;8962;52.538;13.266;2023-05-10T00:28:19;9.07;;;5.68;;
17686;SDS011;8962;52.538;13.266;2023-05-10T00:30:46;7.68;;;5.65;;
17686;SDS011;8962;52.538;13.266;2023-05-10T00:33:14;9.07;;;6.03;;
17686;SDS011;8962;52.538;13.266;2023-05-10T00:35:41;7.22;;;5.32;;
17686;SDS011;8962;52.538;13.266;2023-05-10T00:38:09;7.88;;;6.07;;
17686;SDS011;8962;52.538;13.266;2023-05-10T00:40:36;10.52;;;5.72;;
17686;SDS011;8962;52.538;13.266;2023-05-10T00:43:08;7.90;;;5.35;;
17686;SDS011;8962;52.538;13.266;2023-05-10T00:45:35;7.88;;;5.85;;
17686;SDS011;8962;52.538;13.266;2023-05-10T00:48:04;10.05;;;5.72;;
17686;SDS011;8962;52.538;13.266;2023-05-10T00:50:34;10.20;;;6.00;;
17686;SDS011;8962;52.538;13.266;2023-05-10T00:53:01;9.50;;;5.85;;
17686;SDS011;8962;52.538;13.266;2023-05-10T00:55:30;11.32;;;5.75;;
17686;SDS011;8962;52.538;13.266;2023-05-10T00:57:57;8.57;;;6.35;;
17686;SDS011;8962;52.538;13.266;2023-05-10T01:00:25;8.55;;;6.22;;
17686;SDS011;8962;52.538;13.266;2023-05-10T01:02:53;6.93;;;5.82;;
17686;SDS011;8962;52.538;13.266;2023-05-10T01:05:21;8.98;;;6.22;;
17686;SDS011;8962;52.538;13.266;2023-05-10T01:07:53;11.00;;;6.10;;
17686;SDS011;8962;52.538;13.266;2023-05-10T01:10:22;10.30;;;5.65;;
17686;SDS011;8962;52.538;13.266;2023-05-10T01:12:49;10.23;;;6.85;;
17686;SDS011;8962;52.538;13.266;2023-05-10T01:15:17;10.10;;;6.18;;
17686;SDS011;8962;52.538;13.266;2023-05-10T01:17:46;7.28;;;6.13;;
17686;SDS011;8962;52.538;13.266;2023-05-10T01:20:14;8.43;;;6.47;;
17686;SDS011;8962;52.538;13.266;2023-05-10T01:32:17;9.20;;;6.25;;
17686;SDS011;8962;52.538;13.266;2023-05-10T01:34:53;9.77;;;7.03;;
17686;SDS011;8962;52.538;13.266;2023-05-10T01:37:28;8.02;;;5.95;;
17686;SDS011;8962;52.538;13.266;2023-05-10T01:40:06;10.70;;;6.07;;
17686;SDS011;8962;52.538;13.266;2023-05-10T01:42:53;9.95;;;6.50;;
17686;SDS011;8962;52.538;13.266;2023-05-10T01:45:24;10.80;;;6.13;;
17686;SDS011;8962;52.538;13.266;2023-05-10T01:48:01;8.65;;;6.53;;
17686;SDS011;8962;52.538;13.266;2023-05-10T01:50:32;10.90;;;6.70;;
17686;SDS011;8962;52.538;13.266;2023-05-10T01:53:05;11.82;;;6.88;;
17686;SDS011;8962;52.538;13.266;2023-05-10T01:55:39;12.98;;;6.75;;
17686;SDS011;8962;52.538;13.266;2023-05-10T01:58:13;8.52;;;6.53;;
17686;SDS011;8962;52.538;13.266;2023-05-10T02:00:44;10.60;;;6.95;;
17686;SDS011;8962;52.538;13.266;2023-05-10T02:03:14;10.68;;;6.75;;
17686;SDS011;8962;52.538;13.266;2023-05-10T02:05:42;11.85;;;6.57;;
17686;SDS011;8962;52.538;13.266;2023-05-10T02:08:12;9.63;;;6.70;;
17686;SDS011;8962;52.538;13.266;2023-05-10T02:10:44;9.40;;;6.15;;
17686;SDS011;8962;52.538;13.266;2023-05-10T02:13:12;8.30;;;6.35;;
17686;SDS011;8962;52.538;13.266;2023-05-10T02:15:40;8.50;;;6.03;;
17686;SDS011;8962;52.538;13.266;2023-05-10T02:18:15;11.30;;;5.97;;
17686;SDS011;8962;52.538;13.266;2023-05-10T02:20:43;10.25;;;6.72;;
17686;SDS011;8962;52.538;13.266;2023-05-10T02:23:14;6.60;;;5.80;;
17686;SDS011;8962;52.538;13.266;2023-05-10T02:25:45;10.52;;;6.68;;
17686;SDS011;8962;52.538;13.266;2023-05-10T02:28:14;8.65;;;6.00;;
17686;SDS011;8962;52.538;13.266;2023-05-10T02:30:42;13.18;;;6.28;;
17686;SDS011;8962;52.538;13.266;2023-05-10T02:33:10;10.82;;;5.63;;
17686;SDS011;8962;52.538;13.266;2023-05-10T02:35:41;10.63;;;6.43;;
17686;SDS011;8962;52.538;13.266;2023-05-10T02:38:08;10.18;;;6.28;;
17686;SDS011;8962;52.538;13.266;2023-05-10T02:40:38;10.85;;;6.38;;
17686;SDS011;8962;52.538;13.266;2023-05-10T02:43:08;7.50;;;6.20;;
17686;SDS011;8962;52.538;13.266;2023-05-10T02:45:38;10.48;;;6.97;;
17686;SDS011;8962;52.538;13.266;2023-05-10T02:48:08;9.35;;;6.53;;
17686;SDS011;8962;52.538;13.266;2023-05-10T02:50:36;11.23;;;5.90;;
17686;SDS011;8962;52.538;13.266;2023-05-10T02:55:40;9.70;;;6.18;;
17686;SDS011;8962;52.538;13.266;2023-05-10T02:58:09;12.15;;;6.55;;
17686;SDS011;8962;52.538;13.266;2023-05-10T03:00:36;13.70;;;6.88;;
17686;SDS011;8962;52.538;13.266;2023-05-10T03:03:03;9.55;;;6.20;;
17686;SDS011;8962;52.538;13.266;2023-05-10T03:05:30;10.35;;;6.13;;
17686;SDS011;8962;52.538;13.266;2023-05-10T03:08:00;10.80;;;6.50;;
17686;SDS011;8962;52.538;13.266;2023-05-10T03:10:29;10.68;;;6.35;;
17686;SDS011;8962;52.538;13.266;2023-05-10T03:15:57;9.05;;;6.63;;
17686;SDS011;8962;52.538;13.266;2023-05-10T03:18:42;9.95;;;6.80;;
17686;SDS011;8962;52.538;13.266;2023-05-10T03:21:14;9.43;;;6.15;;
17686;SDS011;8962;52.538;13.266;2023-05-10T03:23:48;9.88;;;6.50;;
17686;SDS011;8962;52.538;13.266;2023-05-10T03:26:20;9.25;;;6.60;;
17686;SDS011;8962;52.538;13.266;2023-05-10T03:28:59;8.45;;;6.00;;
17686;SDS011;8962;52.538;13.266;2023-05-10T03:31:27;11.60;;;6.65;;
17686;SDS011;8962;52.538;13.266;2023-05-10T03:33:54;8.02;;;5.80;;
17686;SDS011;8962;52.538;13.266;2023-05-10T03:36:25;9.70;;;6.25;;
17686;SDS011;8962;52.538;13.266;2023-05-10T03:38:53;9.18;;;6.70;;
17686;SDS011;8962;52.538;13.266;2023-05-10T03:41:21;10.93;;;6.03;;
17686;SDS011;8962;52.538;13.266;2023-05-10T03:43:48;11.35;;;5.80;;
17686;SDS011;8962;52.538;13.266;2023-05-10T03:46:17;9.50;;;5.55;;
17686;SDS011;8962;52.538;13.266;2023-05-10T03:48:44;7.43;;;5.93;;
17686;SDS011;8962;52.538;13.266;2023-05-10T03:51:12;8.75;;;6.00;;
17686;SDS011;8962;52.538;13.266;2023-05-10T03:53:39;7.88;;;5.28;;
17686;SDS011;8962;52.538;13.266;2023-05-10T03:56:06;11.77;;;5.93;;
17686;SDS011;8962;52.538;13.266;2023-05-10T03:58:35;10.00;;;6.32;;
17686;SDS011;8962;52.538;13.266;2023-05-10T04:01:02;8.50;;;5.90;;
17686;SDS011;8962;52.538;13.266;2023-05-10T04:03:31;9.52;;;6.25;;
17686;SDS011;8962;52.538;13.266;2023-05-10T04:06:00;9.57;;;6.22;;
17686;SDS011;8962;52.538;13.266;2023-05-10T04:08:28;9.90;;;5.53;;
17686;SDS011;8962;52.538;13.266;2023-05-10T04:11:04;14.00;;;6.22;;
17686;SDS011;8962;52.538;13.266;2023-05-10T04:13:32;8.70;;;5.40;;
17686;SDS011;8962;52.538;13.266;2023-05-10T04:15:59;10.48;;;5.93;;
17686;SDS011;8962;52.538;13.266;2023-05-10T04:18:26;10.88;;;6.07;;
17686;SDS011;8962;52.538;13.266;2023-05-10T04:20:55;11.50;;;5.70;;
17686;SDS011;8962;52.538;13.266;2023-05-10T04:23:22;7.45;;;5.53;;
17686;SDS011;8962;52.538;13.266;2023-05-10T04:25:49;10.88;;;5.82;;
17686;SDS011;8962;52.538;13.266;2023-05-10T04:28:16;8.45;;;5.60;;
17686;SDS011;8962;52.538;13.266;2023-05-10T04:30:43;9.80;;;5.65;;
17686;SDS011;8962;52.538;13.266;2023-05-10T04:33:10;11.82;;;5.45;;
17686;SDS011;8962;52.538;13.266;2023-05-10T04:35:39;8.82;;;5.47;;
17686;SDS011;8962;52.538;13.266;2023-05-10T04:38:08;8.63;;;5.38;;
17686;SDS011;8962;52.538;13.266;2023-05-10T04:40:35;8.35;;;5.40;;
17686;SDS011;8962;52.538;13.266;2023-05-10T04:43:02;9.80;;;5.70;;
17686;SDS011;8962;52.538;13.266;2023-05-10T04:45:29;7.78;;;5.10;;
17686;SDS011;8962;52.538;13.266;2023-05-10T04:47:58;10.45;;;5.22;;
17686;SDS011;8962;52.538;13.266;2023-05-10T04:50:25;10.52;;;5.55;;
17686;SDS011;8962;52.538;13.266;2023-05-10T04:52:52;8.38;;;5.40;;
17686;SDS011;8962;52.538;13.266;2023-05-10T04:55:22;11.18;;;4.82;;
17686;SDS011;8962;52.538;13.266;2023-05-10T04:57:49;10.93;;;4.97;;
17686;SDS011;8962;52.538;13.266;2023-05-10T05:00:17;10.25;;;5.03;;
17686;SDS011;8962;52.538;13.266;2023-05-10T05:02:45;8.02;;;5.30;;
17686;SDS011;8962;52.538;13.266;2023-05-10T05:05:12;7.70;;;4.60;;
17686;SDS011;8962;52.538;13.266;2023-05-10T05:07:40;12.60;;;4.82;;
17686;SDS011;8962;52.538;13.266;2023-05-10T05:10:07;8.63;;;5.22;;
17686;SDS011;8962;52.538;13.266;2023-05-10T05:12:36;7.60;;;5.10;;
17686;SDS011;8962;52.538;13.266;2023-05-10T05:15:04;8.10;;;5.43;;
17686;SDS011;8962;52.538;13.266;2023-05-10T05:17:33;9.38;;;5.07;;
17686;SDS011;8962;52.538;13.266;2023-05-10T05:20:00;7.75;;;4.53;;
17686;SDS011;8962;52.538;13.266;2023-05-10T05:22:28;8.57;;;4.75;;
17686;SDS011;8962;52.538;13.266;2023-05-10T05:24:55;7.50;;;4.72;;
17686;SDS011;8962;52.538;13.266;2023-05-10T05:27:23;8.13;;;4.82;;
17686;SDS011;8962;52.538;13.266;2023-05-10T05:29:54;8.68;;;5.05;;
17686;SDS011;8962;52.538;13.266;2023-05-10T05:32:22;10.38;;;4.30;;
17686;SDS011;8962;52.538;13.266;2023-05-10T05:34:50;7.43;;;4.60;;
17686;SDS011;8962;52.538;13.266;2023-05-10T05:37:18;7.38;;;4.47;;
17686;SDS011;8962;52.538;13.266;2023-05-10T05:39:46;8.20;;;4.63;;
17686;SDS011;8962;52.538;13.266;2023-05-10T05:42:14;7.72;;;4.10;;
17686;SDS011;8962;52.538;13.266;2023-05-10T05:44:42;12.10;;;4.22;;
17686;SDS011;8962;52.538;13.266;2023-05-10T05:47:11;5.82;;;4.00;;
17686;SDS011;8962;52.538;13.266;2023-05-10T05:49:38;10.80;;;4.60;;
17686;SDS011;8962;52.538;13.266;2023-05-10T05:52:05;12.35;;;4.43;;
17686;SDS011;8962;52.538;13.266;2023-05-10T05:54:33;11.07;;;4.20;;
17686;SDS011;8962;52.538;13.266;2023-05-10T05:57:01;5.85;;;3.75;;
17686;SDS011;8962;52.538;13.266;2023-05-10T05:59:29;6.88;;;4.05;;
17686;SDS011;8962;52.538;13.266;2023-05-10T06:01:56;6.32;;;3.85;;
17686;SDS011;8962;52.538;13.266;2023-05-10T06:04:25;8.25;;;4.05;;
17686;SDS011;8962;52.538;13.266;2023-05-10T06:06:52;11.18;;;4.18;;
17686;SDS011;8962;52.538;13.266;2023-05-10T06:09:19;10.98;;;4.43;;
17686;SDS011;8962;52.538;13.266;2023-05-10T06:11:48;10.82;;;4.05;;
17686;SDS011;8962;52.538;13.266;2023-05-10T06:14:15;8.10;;;3.85;;
17686;SDS011;8962;52.538;13.266;2023-05-10T06:16:43;11.85;;;4.55;;
17686;SDS011;8962;52.538;13.266;2023-05-10T06:19:10;7.15;;;3.90;;
17686;SDS011;8962;52.538;13.266;2023-05-10T06:21:40;6.72;;;3.88;;
17686;SDS011;8962;52.538;13.266;2023-05-10T06:24:07;5.93;;;3.42;;
17686;SDS011;8962;52.538;13.266;2023-05-10T06:26:34;4.97;;;3.72;;
17686;SDS011;8962;52.538;13.266;2023-05-10T06:29:02;5.97;;;3.55;;
17686;SDS011;8962;52.538;13.266;2023-05-10T06:31:29;8.32;;;3.90;;
17686;SDS011;8962;52.538;13.266;2023-05-10T06:33:57;7.28;;;3.83;;
17686;SDS011;8962;52.538;13.266;2023-05-10T06:36:24;6.38;;;3.47;;
17686;SDS011;8962;52.538;13.266;2023-05-10T06:38:54;6.00;;;3.65;;
17686;SDS011;8962;52.538;13.266;2023-05-10T06:41:21;6.30;;;3.70;;
17686;SDS011;8962;52.538;13.266;2023-05-10T06:43:49;10.20;;;3.47;;
17686;SDS011;8962;52.538;13.266;2023-05-10T06:46:16;10.68;;;4.03;;
17686;SDS011;8962;52.538;13.266;2023-05-10T06:48:44;8.68;;;3.47;;
17686;SDS011;8962;52.538;13.266;2023-05-10T06:51:11;6.72;;;3.83;;
17686;SDS011;8962;52.538;13.266;2023-05-10T06:53:38;7.28;;;3.83;;
17686;SDS011;8962;52.538;13.266;2023-05-10T06:56:07;5.13;;;3.58;;
17686;SDS011;8962;52.538;13.266;2023-05-10T06:58:34;6.25;;;3.70;;
17686;SDS011;8962;52.538;13.266;2023-05-10T07:01:02;7.22;;;4.03;;
17686;SDS011;8962;52.538;13.266;2023-05-10T07:03:30;11.43;;;3.35;;
17686;SDS011;8962;52.538;13.266;2023-05-10T07:06:00;5.20;;;3.28;;
17686;SDS011;8962;52.538;13.266;2023-05-10T07:08:30;6.35;;;3.17;;
17686;SDS011;8962;52.538;13.266;2023-05-10T07:11:00;4.72;;;3.30;;
17686;SDS011;8962;52.538;13.266;2023-05-10T07:13:30;6.03;;;3.40;;
17686;SDS011;8962;52.538;13.266;2023-05-10T07:15:57;9.82;;;4.40;;
17686;SDS011;8962;52.538;13.266;2023-05-10T07:18:25;6.38;;;3.20;;
17686;SDS011;8962;52.538;13.266;2023-05-10T07:20:52;7.72;;;3.45;;
17686;SDS011;8962;52.538;13.266;2023-05-10T07:23:20;4.68;;;3.47;;
17686;SDS011;8962;52.538;13.266;2023-05-10T07:25:47;4.80;;;3.20;;
17686;SDS011;8962;52.538;13.266;2023-05-10T07:28:16;6.53;;;3.40;;
17686;SDS011;8962;52.538;13.266;2023-05-10T07:30:45;5.95;;;3.35;;
17686;SDS011;8962;52.538;13.266;2023-05-10T07:33:13;5.18;;;3.05;;
17686;SDS011;8962;52.538;13.266;2023-05-10T07:35:40;6.30;;;3.22;;
17686;SDS011;8962;52.538;13.266;2023-05-10T07:38:08;7.13;;;3.35;;
17686;SDS011;8962;52.538;13.266;2023-05-10T07:40:36;4.43;;;3.42;;
17686;SDS011;8962;52.538;13.266;2023-05-10T07:43:03;5.75;;;3.50;;
17686;SDS011;8962;52.538;13.266;2023-05-10T07:45:31;8.23;;;3.50;;
17686;SDS011;8962;52.538;13.266;2023-05-10T07:48:03;6.80;;;3.63;;
17686;SDS011;8962;52.538;13.266;2023-05-10T07:50:31;7.78;;;3.33;;
17686;SDS011;8962;52.538;13.266;2023-05-10T07:52:59;6.45;;;3.35;;
17686;SDS011;8962;52.538;13.266;2023-05-10T07:55:27;6.13;;;3.00;;
17686;SDS011;8962;52.538;13.266;2023-05-10T07:57:55;3.85;;;3.03;;
17686;SDS011;8962;52.538;13.266;2023-05-10T08:00:22;11.32;;;3.65;;
17686;SDS011;8962;52.538;13.266;2023-05-10T08:02:51;4.45;;;3.03;;
17686;SDS011;8962;52.538;13.266;2023-05-10T08:05:20;5.55;;;3.25;;
17686;SDS011;8962;52.538;13.266;2023-05-10T08:07:47;5.25;;;3.33;;
17686;SDS011;8962;52.538;13.266;2023-05-10T08:10:14;6.35;;;3.08;;
17686;SDS011;8962;52.538;13.266;2023-05-10T08:12:41;4.68;;;2.83;;
17686;SDS011;8962;52.538;13.266;2023-05-10T08:15:09;4.70;;;2.75;;
17686;SDS011;8962;52.538;13.266;2023-05-10T08:17:37;10.10;;;3.50;;
17686;SDS011;8962;52.538;13.266;2023-05-10T08:20:04;6.22;;;3.10;;
17686;SDS011;8962;52.538;13.266;2023-05-10T08:22:34;8.90;;;3.70;;
17686;SDS011;8962;52.538;13.266;2023-05-10T08:25:02;6.85;;;2.90;;
17686;SDS011;8962;52.538;13.266;2023-05-10T08:27:30;5.70;;;3.13;;
17686;SDS011;8962;52.538;13.266;2023-05-10T08:29:57;5.45;;;3.15;;
17686;SDS011;8962;52.538;13.266;2023-05-10T08:32:24;5.03;;;3.70;;
17686;SDS011;8962;52.538;13.266;2023-05-10T08:34:51;8.98;;;3.10;;
17686;SDS011;8962;52.538;13.266;2023-05-10T08:37:18;6.10;;;3.15;;
17686;SDS011;8962;52.538;13.266;2023-05-10T08:39:47;6.00;;;3.20;;
17686;SDS011;8962;52.538;13.266;2023-05-10T08:42:15;3.90;;;3.13;;
17686;SDS011;8962;52.538;13.266;2023-05-10T08:44:45;7.53;;;2.95;;
17686;SDS011;8962;52.538;13.266;2023-05-10T08:47:15;5.38;;;3.20;;
17686;SDS011;8962;52.538;13.266;2023-05-10T08:49:44;7.47;;;2.72;;
17686;SDS011;8962;52.538;13.266;2023-05-10T08:52:16;5.75;;;3.00;;
17686;SDS011;8962;52.538;13.266;2023-05-10T08:54:44;4.88;;;3.42;;
17686;SDS011;8962;52.538;13.266;2023-05-10T08:57:13;6.50;;;3.42;;
17686;SDS011;8962;52.538;13.266;2023-05-10T08:59:41;4.80;;;3.10;;
17686;SDS011;8962;52.538;13.266;2023-05-10T09:02:08;5.40;;;3.00;;
17686;SDS011;8962;52.538;13.266;2023-05-10T09:04:38;4.30;;;3.00;;
17686;SDS011;8962;52.538;13.266;2023-05-10T09:07:05;5.65;;;2.83;;
17686;SDS011;8962;52.538;13.266;2023-05-10T09:09:33;6.95;;;3.33;;
17686;SDS011;8962;52.538;13.266;2023-05-10T09:12:02;6.82;;;3.10;;
17686;SDS011;8962;52.538;13.266;2023-05-10T09:14:29;7.95;;;3.30;;
17686;SDS011;8962;52.538;13.266;2023-05-10T09:16:58;7.78;;;3.25;;
17686;SDS011;8962;52.538;13.266;2023-05-10T09:19:26;6.00;;;3.42;;
17686;SDS011;8962;52.538;13.266;2023-05-10T09:21:54;6.05;;;3.40;;
17686;SDS011;8962;52.538;13.266;2023-05-10T09:24:24;5.68;;;3.33;;
17686;SDS011;8962;52.538;13.266;2023-05-10T09:26:52;5.47;;;3.15;;
17686;SDS011;8962;52.538;13.266;2023-05-10T09:29:20;7.03;;;3.47;;
17686;SDS011;8962;52.538;13.266;2023-05-10T09:31:48;5.00;;;3.60;;
17686;SDS011;8962;52.538;13.266;2023-05-10T09:34:17;5.97;;;3.42;;
17686;SDS011;8962;52.538;13.266;2023-05-10T09:36:52;10.88;;;3.33;;
17686;SDS011;8962;52.538;13.266;2023-05-10T09:39:25;9.07;;;3.38;;
17686;SDS011;8962;52.538;13.266;2023-05-10T09:41:57;5.32;;;3.30;;
17686;SDS011;8962;52.538;13.266;2023-05-10T09:44:27;7.85;;;3.67;;
17686;SDS011;8962;52.538;13.266;2023-05-10T09:46:54;5.63;;;3.08;;
17686;SDS011;8962;52.538;13.266;2023-05-10T09:49:22;10.82;;;4.05;;
17686;SDS011;8962;52.538;13.266;2023-05-10T09:51:59;7.95;;;3.53;;
17686;SDS011;8962;52.538;13.266;2023-05-10T09:54:26;4.13;;;2.90;;
17686;SDS011;8962;52.538;13.266;2023-05-10T09:56:53;4.55;;;2.90;;
17686;SDS011;8962;52.538;13.266;2023-05-10T09:59:20;5.60;;;3.50;;
17686;SDS011;8962;52.538;13.266;2023-05-10T10:01:52;9.40;;;3.90;;
17686;SDS011;8962;52.538;13.266;2023-05-10T10:04:22;7.22;;;3.70;;
17686;SDS011;8962;52.538;13.266;2023-05-10T10:06:58;8.18;;;3.58;;
17686;SDS011;8962;52.538;13.266;2023-05-10T10:09:26;7.13;;;3.28;;
17686;SDS011;8962;52.538;13.266;2023-05-10T10:11:54;8.80;;;4.05;;
17686;SDS011;8962;52.538;13.266;2023-05-10T10:14:22;7.07;;;3.85;;
17686;SDS011;8962;52.538;13.266;2023-05-10T10:16:49;4.20;;;2.75;;
17686;SDS011;8962;52.538;13.266;2023-05-10T10:19:19;5.82;;;3.13;;
17686;SDS011;8962;52.538;13.266;2023-05-10T10:21:46;5.45;;;2.90;;
17686;SDS011;8962;52.538;13.266;2023-05-10T10:24:13;4.95;;;3.40;;
17686;SDS011;8962;52.538;13.266;2023-05-10T10:26:40;8.27;;;3.65;;
17686;SDS011;8962;52.538;13.266;2023-05-10T10:29:12;8.43;;;3.90;;
17686;SDS011;8962;52.538;13.266;2023-05-10T10:31:50;6.55;;;3.17;;
17686;SDS011;8962;52.538;13.266;2023-05-10T10:34:26;3.90;;;3.00;;
17686;SDS011;8962;52.538;13.266;2023-05-10T10:36:56;4.82;;;2.80;;
17686;SDS011;8962;52.538;13.266;2023-05-10T10:39:24;5.18;;;3.00;;
17686;SDS011;8962;52.538;13.266;2023-05-10T10:41:51;5.93;;;3.00;;
17686;SDS011;8962;52.538;13.266;2023-05-10T10:44:33;5.53;;;2.95;;
17686;SDS011;8962;52.538;13.266;2023-05-10T10:47:03;5.18;;;3.03;;
17686;SDS011;8962;52.538;13.266;2023-05-10T10:49:38;6.50;;;2.97;;
17686;SDS011;8962;52.538;13.266;2023-05-10T10:52:13;6.13;;;3.15;;
17686;SDS011;8962;52.538;13.266;2023-05-10T10:54:53;7.93;;;3.38;;
17686;SDS011;8962;52.538;13.266;2023-05-10T10:57:25;8.48;;;3.65;;
17686;SDS011;8962;52.538;13.266;2023-05-10T11:02:50;4.03;;;3.10;;
17686;SDS011;8962;52.538;13.266;2023-05-10T11:08:13;7.47;;;3.30;;
17686;SDS011;8962;52.538;13.266;2023-05-10T11:10:50;6.68;;;3.22;;
17686;SDS011;8962;52.538;13.266;2023-05-10T11:13:26;7.53;;;3.38;;
17686;SDS011;8962;52.538;13.266;2023-05-10T11:15:55;4.47;;;3.45;;
17686;SDS011;8962;52.538;13.266;2023-05-10T11:18:24;5.30;;;3.65;;
17686;SDS011;8962;52.538;13.266;2023-05-10T11:20:56;10.40;;;3.53;;
17686;SDS011;8962;52.538;13.266;2023-05-10T11:23:29;5.97;;;4.00;;
17686;SDS011;8962;52.538;13.266;2023-05-10T11:25:58;6.85;;;3.90;;
17686;SDS011;8962;52.538;13.266;2023-05-10T11:28:26;4.85;;;3.50;;
17686;SDS011;8962;52.538;13.266;2023-05-10T11:30:54;6.38;;;3.03;;
17686;SDS011;8962;52.538;13.266;2023-05-10T11:33:21;4.53;;;2.95;;
17686;SDS011;8962;52.538;13.266;2023-05-10T11:35:48;9.85;;;2.90;;
17686;SDS011;8962;52.538;13.266;2023-05-10T11:38:17;8.48;;;3.17;;
17686;SDS011;8962;52.538;13.266;2023-05-10T11:40:44;7.93;;;3.25;;
17686;SDS011;8962;52.538;13.266;2023-05-10T11:43:11;4.13;;;2.58;;
17686;SDS011;8962;52.538;13.266;2023-05-10T11:45:39;7.88;;;3.40;;
17686;SDS011;8962;52.538;13.266;2023-05-10T11:48:07;8.50;;;2.90;;
17686;SDS011;8962;52.538;13.266;2023-05-10T11:50:34;3.88;;;2.75;;
17686;SDS011;8962;52.538;13.266;2023-05-10T11:53:01;10.18;;;4.82;;
17686;SDS011;8962;52.538;13.266;2023-05-10T11:55:34;5.93;;;3.72;;
17686;SDS011;8962;52.538;13.266;2023-05-10T11:58:01;6.30;;;3.20;;
17686;SDS011;8962;52.538;13.266;2023-05-10T12:00:29;6.38;;;2.75;;
17686;SDS011;8962;52.538;13.266;2023-05-10T12:02:57;4.85;;;3.38;;
17686;SDS011;8962;52.538;13.266;2023-05-10T12:05:26;4.63;;;2.30;;
17686;SDS011;8962;52.538;13.266;2023-05-10T12:07:58;9.45;;;2.90;;
17686;SDS011;8962;52.538;13.266;2023-05-10T12:10:38;4.53;;;2.38;;
17686;SDS011;8962;52.538;13.266;2023-05-10T12:13:08;6.53;;;2.40;;
17686;SDS011;8962;52.538;13.266;2023-05-10T12:15:38;10.73;;;2.70;;
17686;SDS011;8962;52.538;13.266;2023-05-10T12:18:05;4.05;;;2.50;;
17686;SDS011;8962;52.538;13.266;2023-05-10T12:20:36;4.43;;;2.40;;
17686;SDS011;8962;52.538;13.266;2023-05-10T12:23:03;6.40;;;2.65;;
17686;SDS011;8962;52.538;13.266;2023-05-10T12:25:33;5.90;;;2.50;;
17686;SDS011;8962;52.538;13.266;2023-05-10T12:28:04;7.25;;;2.92;;
17686;SDS011;8962;52.538;13.266;2023-05-10T12:30:33;4.75;;;2.40;;
17686;SDS011;8962;52.538;13.266;2023-05-10T12:33:01;4.82;;;2.80;;
17686;SDS011;8962;52.538;13.266;2023-05-10T12:35:33;8.35;;;2.72;;
17686;SDS011;8962;52.538;13.266;2023-05-10T12:38:26;9.15;;;2.70;;
17686;SDS011;8962;52.538;13.266;2023-05-10T12:40:56;6.88;;;2.97;;
17686;SDS011;8962;52.538;13.266;2023-05-10T12:43:25;7.20;;;3.40;;
17686;SDS011;8962;52.538;13.266;2023-05-10T12:45:52;9.20;;;3.30;;
17686;SDS011;8962;52.538;13.266;2023-05-10T12:48:19;4.00;;;2.60;;
17686;SDS011;8962;52.538;13.266;2023-05-10T12:50:47;8.43;;;5.00;;
17686;SDS011;8962;52.538;13.266;2023-05-10T12:53:14;6.50;;;3.35;;
17686;SDS011;8962;52.538;13.266;2023-05-10T12:55:41;8.60;;;3.22;;
17686;SDS011;8962;52.538;13.266;2023-05-10T12:58:08;7.03;;;3.30;;
17686;SDS011;8962;52.538;13.266;2023-05-10T13:00:37;4.65;;;2.50;;
17686;SDS011;8962;52.538;13.266;2023-05-10T13:03:04;2.97;;;2.15;;
17686;SDS011;8962;52.538;13.266;2023-05-10T13:05:32;6.25;;;2.10;;
17686;SDS011;8962;52.538;13.266;2023-05-10T13:07:59;5.60;;;2.28;;
17686;SDS011;8962;52.538;13.266;2023-05-10T13:10:28;5.82;;;2.20;;
17686;SDS011;8962;52.538;13.266;2023-05-10T13:12:55;4.78;;;2.60;;
17686;SDS011;8962;52.538;13.266;2023-05-10T13:15:23;5.88;;;2.42;;
17686;SDS011;8962;52.538;13.266;2023-05-10T13:17:52;6.93;;;2.42;;
17686;SDS011;8962;52.538;13.266;2023-05-10T13:20:22;5.57;;;2.58;;
17686;SDS011;8962;52.538;13.266;2023-05-10T13:22:51;4.60;;;2.30;;
17686;SDS011;8962;52.538;13.266;2023-05-10T13:25:18;2.92;;;2.47;;
17686;SDS011;8962;52.538;13.266;2023-05-10T13:27:46;3.25;;;2.10;;
17686;SDS011;8962;52.538;13.266;2023-05-10T13:30:13;4.25;;;2.30;;
17686;SDS011;8962;52.538;13.266;2023-05-10T13:32:40;4.53;;;2.50;;
17686;SDS011;8962;52.538;13.266;2023-05-10T13:35:10;2.75;;;2.15;;
17686;SDS011;8962;52.538;13.266;2023-05-10T13:37:37;6.50;;;4.22;;
17686;SDS011;8962;52.538;13.266;2023-05-10T13:40:05;6.22;;;2.80;;
17686;SDS011;8962;52.538;13.266;2023-05-10T13:42:34;3.60;;;2.28;;
17686;SDS011;8962;52.538;13.266;2023-05-10T13:45:01;5.65;;;3.15;;
17686;SDS011;8962;52.538;13.266;2023-05-10T13:47:28;5.22;;;3.00;;
17686;SDS011;8962;52.538;13.266;2023-05-10T13:49:56;5.38;;;2.88;;
17686;SDS011;8962;52.538;13.266;2023-05-10T13:52:25;4.55;;;2.65;;
17686;SDS011;8962;52.538;13.266;2023-05-10T13:54:52;5.78;;;2.88;;
17686;SDS011;8962;52.538;13.266;2023-05-10T13:57:21;9.20;;;3.88;;
17686;SDS011;8962;52.538;13.266;2023-05-10T13:59:49;6.57;;;2.70;;
17686;SDS011;8962;52.538;13.266;2023-05-10T14:02:16;3.75;;;2.10;;
17686;SDS011;8962;52.538;13.266;2023-05-10T14:04:44;7.50;;;2.78;;
17686;SDS011;8962;52.538;13.266;2023-05-10T14:07:12;4.95;;;2.70;;
17686;SDS011;8962;52.538;13.266;2023-05-10T14:09:40;4.38;;;3.28;;
17686;SDS011;8962;52.538;13.266;2023-05-10T14:12:07;10.02;;;3.38;;
17686;SDS011;8962;52.538;13.266;2023-05-10T14:14:34;4.45;;;2.70;;
17686;SDS011;8962;52.538;13.266;2023-05-10T14:17:01;4.35;;;2.38;;
17686;SDS011;8962;52.538;13.266;2023-05-10T14:19:29;7.68;;;2.60;;
17686;SDS011;8962;52.538;13.266;2023-05-10T14:21:57;6.32;;;2.75;;
17686;SDS011;8962;52.538;13.266;2023-05-10T14:24:25;4.00;;;2.47;;
17686;SDS011;8962;52.538;13.266;2023-05-10T14:26:53;3.15;;;2.20;;
17686;SDS011;8962;52.538;13.266;2023-05-10T14:29:20;4.25;;;2.28;;
17686;SDS011;8962;52.538;13.266;2023-05-10T14:31:48;6.22;;;3.17;;
17686;SDS011;8962;52.538;13.266;2023-05-10T14:34:16;4.03;;;2.60;;
17686;SDS011;8962;52.538;13.266;2023-05-10T14:36:43;7.43;;;2.40;;
17686;SDS011;8962;52.538;13.266;2023-05-10T14:39:10;5.85;;;2.70;;
17686;SDS011;8962;52.538;13.266;2023-05-10T14:41:38;5.10;;;2.60;;
17686;SDS011;8962;52.538;13.266;2023-05-10T14:44:09;5.60;;;2.70;;
17686;SDS011;8962;52.538;13.266;2023-05-10T14:46:36;7.95;;;3.00;;
17686;SDS011;8962;52.538;13.266;2023-05-10T14:49:03;5.88;;;2.40;;
17686;SDS011;8962;52.538;13.266;2023-05-10T14:51:30;3.25;;;2.80;;
17686;SDS011;8962;52.538;13.266;2023-05-10T14:53:58;3.97;;;2.40;;
17686;SDS011;8962;52.538;13.266;2023-05-10T14:56:25;4.47;;;2.75;;
17686;SDS011;8962;52.538;13.266;2023-05-10T14:58:53;5.28;;;3.53;;
17686;SDS011;8962;52.538;13.266;2023-05-10T15:01:21;8.52;;;2.92;;
17686;SDS011;8962;52.538;13.266;2023-05-10T15:03:50;5.30;;;2.67;;
17686;SDS011;8962;52.538;13.266;2023-05-10T15:06:22;5.18;;;2.75;;
17686;SDS011;8962;52.538;13.266;2023-05-10T15:08:50;3.95;;;2.70;;
17686;SDS011;8962;52.538;13.266;2023-05-10T15:11:18;4.45;;;2.72;;
17686;SDS011;8962;52.538;13.266;2023-05-10T15:13:45;6.55;;;2.60;;
17686;SDS011;8962;52.538;13.266;2023-05-10T15:16:12;4.90;;;2.63;;